sensor_id;sensor_type;location;lat;lon;timestamp;P1;durP1;ratioP1;P2;durP2;ratioP2
579;SDS011;276;48.392;9.950;2024-01-27T00:00:22;1.67;;;1.50;;
579;SDS011;276;48.392;9.950;2024-01-27T00:02:53;3.40;;;1.70;;
579;SDS011;276;48.392;9.950;2024-01-27T00:05:19;10.47;;;2.20;;
579;SDS011;276;48.392;9.950;2024-01-27T00:07:44;1.63;;;1.40;;
579;SDS011;276;48.392;9.950;2024-01-27T00:10:12;2.87;;;1.63;;
579;SDS011;276;48.392;9.950;2024-01-27T00:12:40;1.67;;;1.37;;
579;SDS011;276;48.392;9.950;2024-01-27T00:15:08;2.03;;;1.80;;
579;SDS011;276;48.392;9.950;2024-01-27T00:17:36;1.60;;;1.50;;
579;SDS011;276;48.392;9.950;2024-01-27T00:20:05;3.90;;;1.67;;
579;SDS011;276;48.392;9.950;2024-01-27T00:22:31;1.33;;;1.20;;
579;SDS011;276;48.392;9.950;2024-01-27T00:24:59;3.00;;;1.57;;
579;SDS011;276;48.392;9.950;2024-01-27T00:27:24;2.80;;;1.40;;
579;SDS011;276;48.392;9.950;2024-01-27T00:29:50;3.43;;;2.47;;
579;SDS011;276;48.392;9.950;2024-01-27T00:32:15;3.03;;;1.93;;
579;SDS011;276;48.392;9.950;2024-01-27T00:34:41;2.60;;;2.33;;
579;SDS011;276;48.392;9.950;2024-01-27T00:37:07;2.03;;;1.90;;
579;SDS011;276;48.392;9.950;2024-01-27T00:39:35;6.37;;;2.20;;
579;SDS011;276;48.392;9.950;2024-01-27T00:42:03;2.40;;;1.60;;
579;SDS011;276;48.392;9.950;2024-01-27T00:44:29;2.83;;;1.70;;
579;SDS011;276;48.392;9.950;2024-01-27T00:46:56;3.10;;;1.77;;
579;SDS011;276;48.392;9.950;2024-01-27T00:49:22;2.33;;;1.77;;
579;SDS011;276;48.392;9.950;2024-01-27T00:51:50;2.33;;;1.97;;
579;SDS011;276;48.392;9.950;2024-01-27T00:54:16;3.20;;;1.80;;
579;SDS011;276;48.392;9.950;2024-01-27T00:56:42;4.10;;;1.47;;
579;SDS011;276;48.392;9.950;2024-01-27T00:59:07;2.80;;;1.50;;
579;SDS011;276;48.392;9.950;2024-01-27T01:01:35;3.40;;;1.60;;
579;SDS011;276;48.392;9.950;2024-01-27T01:04:01;1.87;;;1.53;;
579;SDS011;276;48.392;9.950;2024-01-27T01:06:29;8.17;;;1.77;;
579;SDS011;276;48.392;9.950;2024-01-27T01:08:57;3.07;;;1.60;;
579;SDS011;276;48.392;9.950;2024-01-27T01:11:23;2.73;;;1.53;;
579;SDS011;276;48.392;9.950;2024-01-27T01:13:53;1.87;;;1.60;;
579;SDS011;276;48.392;9.950;2024-01-27T01:16:25;3.03;;;1.90;;
579;SDS011;276;48.392;9.950;2024-01-27T01:18:51;7.13;;;1.40;;
579;SDS011;276;48.392;9.950;2024-01-27T01:21:19;2.43;;;1.50;;
579;SDS011;276;48.392;9.950;2024-01-27T01:23:47;3.03;;;1.20;;
579;SDS011;276;48.392;9.950;2024-01-27T01:26:17;3.50;;;1.63;;
579;SDS011;276;48.392;9.950;2024-01-27T01:28:43;3.30;;;1.20;;
579;SDS011;276;48.392;9.950;2024-01-27T01:31:08;2.57;;;1.43;;
579;SDS011;276;48.392;9.950;2024-01-27T01:33:34;2.80;;;2.53;;
579;SDS011;276;48.392;9.950;2024-01-27T01:36:02;4.00;;;1.70;;
579;SDS011;276;48.392;9.950;2024-01-27T01:38:27;2.43;;;2.17;;
579;SDS011;276;48.392;9.950;2024-01-27T01:40:53;3.73;;;2.37;;
579;SDS011;276;48.392;9.950;2024-01-27T01:43:19;4.10;;;1.40;;
579;SDS011;276;48.392;9.950;2024-01-27T01:45:47;3.20;;;2.10;;
579;SDS011;276;48.392;9.950;2024-01-27T01:48:15;2.33;;;1.63;;
579;SDS011;276;48.392;9.950;2024-01-27T01:50:43;3.13;;;1.60;;
579;SDS011;276;48.392;9.950;2024-01-27T01:53:09;1.40;;;1.30;;
579;SDS011;276;48.392;9.950;2024-01-27T01:55:38;4.60;;;3.20;;
579;SDS011;276;48.392;9.950;2024-01-27T01:58:06;3.03;;;1.43;;
579;SDS011;276;48.392;9.950;2024-01-27T02:00:31;4.20;;;1.70;;
579;SDS011;276;48.392;9.950;2024-01-27T02:02:57;3.27;;;2.00;;
579;SDS011;276;48.392;9.950;2024-01-27T02:05:23;3.30;;;2.20;;
579;SDS011;276;48.392;9.950;2024-01-27T02:07:53;3.60;;;1.80;;
579;SDS011;276;48.392;9.950;2024-01-27T02:10:21;3.63;;;1.57;;
579;SDS011;276;48.392;9.950;2024-01-27T02:12:49;3.87;;;1.77;;
579;SDS011;276;48.392;9.950;2024-01-27T02:15:20;2.10;;;1.90;;
579;SDS011;276;48.392;9.950;2024-01-27T02:17:46;3.17;;;1.83;;
579;SDS011;276;48.392;9.950;2024-01-27T02:20:14;2.67;;;1.97;;
579;SDS011;276;48.392;9.950;2024-01-27T02:22:42;1.53;;;1.40;;
579;SDS011;276;48.392;9.950;2024-01-27T02:25:10;4.83;;;1.87;;
579;SDS011;276;48.392;9.950;2024-01-27T02:27:39;5.40;;;1.93;;
579;SDS011;276;48.392;9.950;2024-01-27T02:30:07;4.20;;;2.00;;
579;SDS011;276;48.392;9.950;2024-01-27T02:32:33;4.60;;;1.83;;
579;SDS011;276;48.392;9.950;2024-01-27T02:35:03;3.10;;;2.00;;
579;SDS011;276;48.392;9.950;2024-01-27T02:37:29;4.20;;;1.60;;
579;SDS011;276;48.392;9.950;2024-01-27T02:39:59;13.63;;;2.17;;
579;SDS011;276;48.392;9.950;2024-01-27T02:42:25;1.73;;;1.63;;
579;SDS011;276;48.392;9.950;2024-01-27T02:44:52;2.97;;;2.43;;
579;SDS011;276;48.392;9.950;2024-01-27T02:47:21;5.87;;;2.03;;
579;SDS011;276;48.392;9.950;2024-01-27T02:49:46;11.10;;;2.67;;
579;SDS011;276;48.392;9.950;2024-01-27T02:52:14;3.93;;;2.37;;
579;SDS011;276;48.392;9.950;2024-01-27T02:54:40;3.13;;;1.80;;
579;SDS011;276;48.392;9.950;2024-01-27T02:57:05;1.80;;;1.70;;
579;SDS011;276;48.392;9.950;2024-01-27T02:59:31;4.97;;;2.23;;
579;SDS011;276;48.392;9.950;2024-01-27T03:01:57;3.30;;;2.97;;
579;SDS011;276;48.392;9.950;2024-01-27T03:04:22;4.10;;;2.33;;
579;SDS011;276;48.392;9.950;2024-01-27T03:06:50;2.00;;;1.67;;
579;SDS011;276;48.392;9.950;2024-01-27T03:09:36;2.63;;;2.30;;
579;SDS011;276;48.392;9.950;2024-01-27T03:12:29;3.93;;;3.10;;
579;SDS011;276;48.392;9.950;2024-01-27T03:14:55;2.63;;;2.43;;
579;SDS011;276;48.392;9.950;2024-01-27T03:17:21;3.10;;;2.50;;
579;SDS011;276;48.392;9.950;2024-01-27T03:19:46;2.77;;;2.57;;
579;SDS011;276;48.392;9.950;2024-01-27T03:22:12;3.77;;;2.40;;
579;SDS011;276;48.392;9.950;2024-01-27T03:24:40;5.00;;;2.57;;
579;SDS011;276;48.392;9.950;2024-01-27T03:27:06;3.73;;;3.00;;
579;SDS011;276;48.392;9.950;2024-01-27T03:29:32;3.50;;;3.20;;
579;SDS011;276;48.392;9.950;2024-01-27T03:31:57;5.63;;;2.80;;
579;SDS011;276;48.392;9.950;2024-01-27T03:34:23;3.73;;;2.87;;
579;SDS011;276;48.392;9.950;2024-01-27T03:36:50;4.57;;;2.67;;
579;SDS011;276;48.392;9.950;2024-01-27T03:39:18;4.23;;;2.30;;
579;SDS011;276;48.392;9.950;2024-01-27T03:41:48;3.40;;;3.10;;
579;SDS011;276;48.392;9.950;2024-01-27T03:44:14;4.47;;;3.37;;
579;SDS011;276;48.392;9.950;2024-01-27T03:46:42;2.67;;;2.47;;
579;SDS011;276;48.392;9.950;2024-01-27T03:49:08;4.57;;;3.00;;
579;SDS011;276;48.392;9.950;2024-01-27T03:51:38;2.87;;;2.53;;
579;SDS011;276;48.392;9.950;2024-01-27T03:54:04;6.73;;;3.40;;
579;SDS011;276;48.392;9.950;2024-01-27T03:56:29;3.57;;;2.83;;
579;SDS011;276;48.392;9.950;2024-01-27T03:58:57;3.40;;;3.10;;
579;SDS011;276;48.392;9.950;2024-01-27T04:01:23;5.60;;;3.00;;
579;SDS011;276;48.392;9.950;2024-01-27T04:03:49;7.60;;;3.63;;
579;SDS011;276;48.392;9.950;2024-01-27T04:06:15;4.83;;;3.33;;
579;SDS011;276;48.392;9.950;2024-01-27T04:08:43;6.17;;;4.03;;
579;SDS011;276;48.392;9.950;2024-01-27T04:11:18;6.93;;;3.70;;
579;SDS011;276;48.392;9.950;2024-01-27T04:13:48;6.10;;;4.23;;
579;SDS011;276;48.392;9.950;2024-01-27T04:16:14;4.90;;;3.40;;
579;SDS011;276;48.392;9.950;2024-01-27T04:18:42;3.30;;;3.00;;
579;SDS011;276;48.392;9.950;2024-01-27T04:21:08;4.70;;;3.80;;
579;SDS011;276;48.392;9.950;2024-01-27T04:23:33;4.77;;;3.57;;
579;SDS011;276;48.392;9.950;2024-01-27T04:25:59;6.83;;;3.60;;
579;SDS011;276;48.392;9.950;2024-01-27T04:28:25;6.00;;;3.70;;
579;SDS011;276;48.392;9.950;2024-01-27T04:30:51;3.80;;;3.50;;
579;SDS011;276;48.392;9.950;2024-01-27T04:33:17;5.73;;;3.67;;
579;SDS011;276;48.392;9.950;2024-01-27T04:35:42;4.23;;;3.83;;
579;SDS011;276;48.392;9.950;2024-01-27T04:38:10;5.63;;;3.23;;
579;SDS011;276;48.392;9.950;2024-01-27T04:40:36;7.17;;;3.60;;
579;SDS011;276;48.392;9.950;2024-01-27T04:43:01;3.37;;;3.07;;
579;SDS011;276;48.392;9.950;2024-01-27T04:45:28;5.17;;;3.60;;
579;SDS011;276;48.392;9.950;2024-01-27T04:47:53;4.70;;;4.07;;
579;SDS011;276;48.392;9.950;2024-01-27T04:50:19;7.17;;;3.90;;
579;SDS011;276;48.392;9.950;2024-01-27T04:52:45;8.27;;;4.13;;
579;SDS011;276;48.392;9.950;2024-01-27T04:55:11;6.70;;;3.60;;
579;SDS011;276;48.392;9.950;2024-01-27T04:57:37;6.80;;;3.20;;
579;SDS011;276;48.392;9.950;2024-01-27T05:00:05;5.00;;;3.57;;
579;SDS011;276;48.392;9.950;2024-01-27T05:02:34;7.60;;;3.83;;
579;SDS011;276;48.392;9.950;2024-01-27T05:05:02;5.33;;;4.20;;
579;SDS011;276;48.392;9.950;2024-01-27T05:07:30;6.20;;;3.73;;
579;SDS011;276;48.392;9.950;2024-01-27T05:09:56;3.90;;;3.50;;
579;SDS011;276;48.392;9.950;2024-01-27T05:12:21;4.03;;;3.70;;
579;SDS011;276;48.392;9.950;2024-01-27T05:14:47;4.30;;;3.73;;
579;SDS011;276;48.392;9.950;2024-01-27T05:17:13;4.53;;;3.50;;
579;SDS011;276;48.392;9.950;2024-01-27T05:19:38;5.73;;;4.13;;
579;SDS011;276;48.392;9.950;2024-01-27T05:22:04;5.03;;;3.87;;
579;SDS011;276;48.392;9.950;2024-01-27T05:24:30;6.93;;;3.80;;
579;SDS011;276;48.392;9.950;2024-01-27T05:26:55;4.30;;;3.90;;
579;SDS011;276;48.392;9.950;2024-01-27T05:29:21;8.43;;;3.87;;
579;SDS011;276;48.392;9.950;2024-01-27T05:31:47;6.83;;;3.90;;
579;SDS011;276;48.392;9.950;2024-01-27T05:34:13;4.13;;;3.73;;
579;SDS011;276;48.392;9.950;2024-01-27T05:36:41;6.43;;;4.13;;
579;SDS011;276;48.392;9.950;2024-01-27T05:39:09;3.80;;;2.87;;
579;SDS011;276;48.392;9.950;2024-01-27T05:41:37;5.40;;;3.97;;
579;SDS011;276;48.392;9.950;2024-01-27T05:44:02;4.33;;;3.93;;
579;SDS011;276;48.392;9.950;2024-01-27T05:46:30;4.07;;;3.67;;
579;SDS011;276;48.392;9.950;2024-01-27T05:48:58;8.93;;;4.20;;
579;SDS011;276;48.392;9.950;2024-01-27T05:51:28;3.80;;;3.50;;
579;SDS011;276;48.392;9.950;2024-01-27T05:53:56;6.43;;;4.30;;
579;SDS011;276;48.392;9.950;2024-01-27T05:56:24;6.40;;;4.03;;
579;SDS011;276;48.392;9.950;2024-01-27T05:58:49;5.87;;;4.00;;
579;SDS011;276;48.392;9.950;2024-01-27T06:01:18;7.67;;;4.23;;
579;SDS011;276;48.392;9.950;2024-01-27T06:03:44;3.93;;;3.50;;
579;SDS011;276;48.392;9.950;2024-01-27T06:06:10;6.67;;;4.33;;
579;SDS011;276;48.392;9.950;2024-01-27T06:08:36;4.03;;;3.73;;
579;SDS011;276;48.392;9.950;2024-01-27T06:11:01;8.20;;;4.60;;
579;SDS011;276;48.392;9.950;2024-01-27T06:13:30;8.70;;;4.77;;
579;SDS011;276;48.392;9.950;2024-01-27T06:15:57;3.23;;;3.00;;
579;SDS011;276;48.392;9.950;2024-01-27T06:18:24;5.73;;;3.00;;
579;SDS011;276;48.392;9.950;2024-01-27T06:20:51;5.03;;;3.90;;
579;SDS011;276;48.392;9.950;2024-01-27T06:23:17;6.47;;;4.30;;
579;SDS011;276;48.392;9.950;2024-01-27T06:25:45;4.77;;;4.30;;
579;SDS011;276;48.392;9.950;2024-01-27T06:28:10;6.33;;;4.10;;
579;SDS011;276;48.392;9.950;2024-01-27T06:30:36;4.80;;;4.30;;
579;SDS011;276;48.392;9.950;2024-01-27T06:33:04;4.37;;;3.90;;
579;SDS011;276;48.392;9.950;2024-01-27T06:35:32;3.83;;;3.30;;
579;SDS011;276;48.392;9.950;2024-01-27T06:37:58;6.70;;;3.90;;
579;SDS011;276;48.392;9.950;2024-01-27T06:40:24;3.80;;;3.10;;
579;SDS011;276;48.392;9.950;2024-01-27T06:42:49;12.43;;;3.80;;
579;SDS011;276;48.392;9.950;2024-01-27T06:45:15;4.40;;;3.70;;
579;SDS011;276;48.392;9.950;2024-01-27T06:47:41;3.97;;;3.47;;
579;SDS011;276;48.392;9.950;2024-01-27T06:50:09;5.63;;;3.00;;
579;SDS011;276;48.392;9.950;2024-01-27T06:52:35;4.67;;;3.53;;
579;SDS011;276;48.392;9.950;2024-01-27T06:55:01;4.40;;;3.80;;
579;SDS011;276;48.392;9.950;2024-01-27T06:57:29;4.17;;;3.33;;
579;SDS011;276;48.392;9.950;2024-01-27T06:59:59;5.53;;;4.30;;
579;SDS011;276;48.392;9.950;2024-01-27T07:02:30;6.53;;;4.70;;
579;SDS011;276;48.392;9.950;2024-01-27T07:04:55;4.77;;;4.10;;
579;SDS011;276;48.392;9.950;2024-01-27T07:07:27;7.27;;;4.97;;
579;SDS011;276;48.392;9.950;2024-01-27T07:09:57;4.73;;;4.30;;
579;SDS011;276;48.392;9.950;2024-01-27T07:12:30;5.40;;;4.60;;
579;SDS011;276;48.392;9.950;2024-01-27T07:14:56;6.03;;;4.40;;
579;SDS011;276;48.392;9.950;2024-01-27T07:17:22;4.83;;;4.10;;
579;SDS011;276;48.392;9.950;2024-01-27T07:19:47;5.03;;;3.60;;
579;SDS011;276;48.392;9.950;2024-01-27T07:22:13;7.53;;;4.30;;
579;SDS011;276;48.392;9.950;2024-01-27T07:24:39;5.97;;;3.70;;
579;SDS011;276;48.392;9.950;2024-01-27T07:27:04;6.20;;;4.90;;
579;SDS011;276;48.392;9.950;2024-01-27T07:29:32;5.10;;;3.90;;
579;SDS011;276;48.392;9.950;2024-01-27T07:31:58;7.77;;;4.43;;
579;SDS011;276;48.392;9.950;2024-01-27T07:34:23;6.00;;;4.50;;
579;SDS011;276;48.392;9.950;2024-01-27T07:36:49;7.20;;;5.50;;
579;SDS011;276;48.392;9.950;2024-01-27T07:39:15;7.20;;;6.00;;
579;SDS011;276;48.392;9.950;2024-01-27T07:41:41;7.20;;;5.00;;
579;SDS011;276;48.392;9.950;2024-01-27T07:44:09;5.07;;;4.57;;
579;SDS011;276;48.392;9.950;2024-01-27T07:46:39;6.97;;;5.50;;
579;SDS011;276;48.392;9.950;2024-01-27T07:49:06;10.03;;;6.60;;
579;SDS011;276;48.392;9.950;2024-01-27T07:51:32;13.20;;;6.27;;
579;SDS011;276;48.392;9.950;2024-01-27T07:54:01;8.27;;;6.00;;
579;SDS011;276;48.392;9.950;2024-01-27T07:56:26;9.30;;;6.20;;
579;SDS011;276;48.392;9.950;2024-01-27T07:58:52;16.10;;;6.50;;
579;SDS011;276;48.392;9.950;2024-01-27T08:01:20;6.67;;;5.40;;
579;SDS011;276;48.392;9.950;2024-01-27T08:03:49;9.80;;;5.80;;
579;SDS011;276;48.392;9.950;2024-01-27T08:06:15;7.80;;;5.80;;
579;SDS011;276;48.392;9.950;2024-01-27T08:08:45;10.17;;;5.40;;
579;SDS011;276;48.392;9.950;2024-01-27T08:11:12;6.23;;;4.90;;
579;SDS011;276;48.392;9.950;2024-01-27T08:13:42;6.63;;;5.67;;
579;SDS011;276;48.392;9.950;2024-01-27T08:16:08;9.17;;;6.60;;
579;SDS011;276;48.392;9.950;2024-01-27T08:18:38;8.37;;;5.80;;
579;SDS011;276;48.392;9.950;2024-01-27T08:21:04;9.83;;;6.37;;
579;SDS011;276;48.392;9.950;2024-01-27T08:23:32;18.70;;;7.63;;
579;SDS011;276;48.392;9.950;2024-01-27T08:25:58;22.87;;;7.70;;
579;SDS011;276;48.392;9.950;2024-01-27T08:28:24;13.83;;;7.73;;
579;SDS011;276;48.392;9.950;2024-01-27T08:30:49;22.87;;;8.00;;
579;SDS011;276;48.392;9.950;2024-01-27T08:33:15;19.33;;;9.60;;
579;SDS011;276;48.392;9.950;2024-01-27T08:35:41;13.33;;;8.00;;
579;SDS011;276;48.392;9.950;2024-01-27T08:38:09;24.53;;;8.80;;
579;SDS011;276;48.392;9.950;2024-01-27T08:40:35;24.03;;;8.77;;
579;SDS011;276;48.392;9.950;2024-01-27T08:43:01;13.10;;;8.67;;
579;SDS011;276;48.392;9.950;2024-01-27T08:45:27;18.60;;;8.23;;
579;SDS011;276;48.392;9.950;2024-01-27T08:47:55;13.47;;;9.30;;
579;SDS011;276;48.392;9.950;2024-01-27T08:50:25;22.63;;;9.97;;
579;SDS011;276;48.392;9.950;2024-01-27T08:52:51;13.17;;;8.40;;
579;SDS011;276;48.392;9.950;2024-01-27T08:55:19;15.33;;;8.20;;
579;SDS011;276;48.392;9.950;2024-01-27T08:57:47;13.00;;;7.90;;
579;SDS011;276;48.392;9.950;2024-01-27T09:00:15;11.27;;;7.70;;
579;SDS011;276;48.392;9.950;2024-01-27T09:02:44;11.03;;;7.43;;
579;SDS011;276;48.392;9.950;2024-01-27T09:05:10;11.07;;;7.00;;
579;SDS011;276;48.392;9.950;2024-01-27T09:07:36;12.70;;;8.77;;
579;SDS011;276;48.392;9.950;2024-01-27T09:10:02;12.77;;;9.30;;
579;SDS011;276;48.392;9.950;2024-01-27T09:12:28;9.33;;;8.10;;
579;SDS011;276;48.392;9.950;2024-01-27T09:14:54;11.10;;;7.80;;
579;SDS011;276;48.392;9.950;2024-01-27T09:17:22;12.80;;;8.80;;
579;SDS011;276;48.392;9.950;2024-01-27T09:19:47;9.77;;;8.33;;
579;SDS011;276;48.392;9.950;2024-01-27T09:22:13;11.63;;;7.90;;
579;SDS011;276;48.392;9.950;2024-01-27T09:24:39;7.90;;;7.10;;
579;SDS011;276;48.392;9.950;2024-01-27T09:27:07;10.07;;;9.07;;
579;SDS011;276;48.392;9.950;2024-01-27T09:29:33;11.13;;;7.90;;
579;SDS011;276;48.392;9.950;2024-01-27T09:32:00;8.00;;;7.20;;
579;SDS011;276;48.392;9.950;2024-01-27T09:34:26;8.97;;;7.10;;
579;SDS011;276;48.392;9.950;2024-01-27T09:36:54;10.73;;;7.00;;
579;SDS011;276;48.392;9.950;2024-01-27T09:39:19;9.53;;;7.30;;
579;SDS011;276;48.392;9.950;2024-01-27T09:41:48;9.70;;;8.20;;
579;SDS011;276;48.392;9.950;2024-01-27T09:44:17;12.23;;;7.30;;
579;SDS011;276;48.392;9.950;2024-01-27T09:46:44;7.23;;;6.13;;
579;SDS011;276;48.392;9.950;2024-01-27T09:49:12;6.80;;;5.90;;
579;SDS011;276;48.392;9.950;2024-01-27T09:51:40;7.00;;;5.83;;
579;SDS011;276;48.392;9.950;2024-01-27T09:54:08;5.83;;;5.10;;
579;SDS011;276;48.392;9.950;2024-01-27T09:56:36;7.53;;;5.37;;
579;SDS011;276;48.392;9.950;2024-01-27T09:59:03;6.20;;;5.10;;
579;SDS011;276;48.392;9.950;2024-01-27T10:01:32;6.67;;;4.90;;
579;SDS011;276;48.392;9.950;2024-01-27T10:04:00;4.20;;;3.90;;
579;SDS011;276;48.392;9.950;2024-01-27T10:06:31;4.83;;;4.37;;
579;SDS011;276;48.392;9.950;2024-01-27T10:08:56;4.33;;;3.93;;
579;SDS011;276;48.392;9.950;2024-01-27T10:11:23;6.47;;;4.80;;
579;SDS011;276;48.392;9.950;2024-01-27T10:13:55;8.30;;;5.00;;
579;SDS011;276;48.392;9.950;2024-01-27T10:16:22;6.57;;;4.27;;
579;SDS011;276;48.392;9.950;2024-01-27T10:19:02;5.63;;;4.30;;
579;SDS011;276;48.392;9.950;2024-01-27T10:21:28;5.60;;;5.10;;
579;SDS011;276;48.392;9.950;2024-01-27T10:23:54;6.73;;;6.07;;
579;SDS011;276;48.392;9.950;2024-01-27T10:26:20;6.57;;;5.47;;
579;SDS011;276;48.392;9.950;2024-01-27T10:28:55;6.20;;;4.17;;
579;SDS011;276;48.392;9.950;2024-01-27T10:31:25;6.13;;;4.23;;
579;SDS011;276;48.392;9.950;2024-01-27T10:33:52;4.30;;;3.23;;
579;SDS011;276;48.392;9.950;2024-01-27T10:36:21;6.40;;;3.50;;
579;SDS011;276;48.392;9.950;2024-01-27T10:38:47;5.67;;;3.40;;
579;SDS011;276;48.392;9.950;2024-01-27T10:41:17;6.70;;;4.27;;
579;SDS011;276;48.392;9.950;2024-01-27T10:43:52;3.97;;;3.57;;
579;SDS011;276;48.392;9.950;2024-01-27T10:46:21;4.97;;;4.43;;
579;SDS011;276;48.392;9.950;2024-01-27T10:48:50;4.70;;;3.40;;
579;SDS011;276;48.392;9.950;2024-01-27T10:51:22;5.03;;;3.63;;
579;SDS011;276;48.392;9.950;2024-01-27T10:53:55;4.17;;;3.60;;
579;SDS011;276;48.392;9.950;2024-01-27T10:56:26;5.50;;;4.20;;
579;SDS011;276;48.392;9.950;2024-01-27T10:58:56;4.77;;;3.83;;
579;SDS011;276;48.392;9.950;2024-01-27T11:01:26;4.00;;;3.57;;
579;SDS011;276;48.392;9.950;2024-01-27T11:03:56;3.73;;;3.00;;
579;SDS011;276;48.392;9.950;2024-01-27T11:06:23;4.20;;;2.70;;
579;SDS011;276;48.392;9.950;2024-01-27T11:08:56;4.00;;;2.90;;
579;SDS011;276;48.392;9.950;2024-01-27T11:11:24;3.77;;;2.87;;
579;SDS011;276;48.392;9.950;2024-01-27T11:13:50;4.50;;;2.87;;
579;SDS011;276;48.392;9.950;2024-01-27T11:16:19;4.00;;;2.90;;
579;SDS011;276;48.392;9.950;2024-01-27T11:18:47;4.30;;;3.50;;
579;SDS011;276;48.392;9.950;2024-01-27T11:21:14;5.03;;;3.30;;
579;SDS011;276;48.392;9.950;2024-01-27T11:23:42;3.47;;;2.97;;
579;SDS011;276;48.392;9.950;2024-01-27T11:26:09;3.60;;;2.87;;
579;SDS011;276;48.392;9.950;2024-01-27T11:28:42;3.00;;;2.67;;
579;SDS011;276;48.392;9.950;2024-01-27T11:31:07;4.90;;;3.10;;
579;SDS011;276;48.392;9.950;2024-01-27T11:33:40;5.07;;;3.20;;
579;SDS011;276;48.392;9.950;2024-01-27T11:36:17;3.17;;;2.50;;
579;SDS011;276;48.392;9.950;2024-01-27T11:38:45;4.63;;;3.33;;
579;SDS011;276;48.392;9.950;2024-01-27T11:41:11;2.50;;;2.30;;
579;SDS011;276;48.392;9.950;2024-01-27T11:43:37;5.10;;;2.90;;
579;SDS011;276;48.392;9.950;2024-01-27T11:46:02;4.60;;;2.70;;
579;SDS011;276;48.392;9.950;2024-01-27T11:48:28;2.80;;;2.27;;
579;SDS011;276;48.392;9.950;2024-01-27T11:51:06;3.23;;;2.47;;
579;SDS011;276;48.392;9.950;2024-01-27T11:53:35;3.27;;;1.80;;
579;SDS011;276;48.392;9.950;2024-01-27T11:56:01;4.10;;;3.10;;
579;SDS011;276;48.392;9.950;2024-01-27T11:58:28;3.63;;;3.27;;
579;SDS011;276;48.392;9.950;2024-01-27T12:00:57;4.40;;;4.00;;
579;SDS011;276;48.392;9.950;2024-01-27T12:03:26;4.53;;;3.47;;
579;SDS011;276;48.392;9.950;2024-01-27T12:05:54;6.00;;;3.90;;
579;SDS011;276;48.392;9.950;2024-01-27T12:08:23;3.10;;;2.90;;
579;SDS011;276;48.392;9.950;2024-01-27T12:10:53;5.93;;;3.00;;
579;SDS011;276;48.392;9.950;2024-01-27T12:13:19;4.70;;;3.00;;
579;SDS011;276;48.392;9.950;2024-01-27T12:15:47;6.97;;;2.60;;
579;SDS011;276;48.392;9.950;2024-01-27T12:18:13;6.30;;;3.10;;
579;SDS011;276;48.392;9.950;2024-01-27T12:20:39;4.00;;;2.53;;
579;SDS011;276;48.392;9.950;2024-01-27T12:23:05;3.43;;;2.10;;
579;SDS011;276;48.392;9.950;2024-01-27T12:25:31;4.33;;;3.30;;
579;SDS011;276;48.392;9.950;2024-01-27T12:27:59;3.57;;;2.50;;
579;SDS011;276;48.392;9.950;2024-01-27T12:30:27;3.00;;;2.23;;
579;SDS011;276;48.392;9.950;2024-01-27T12:32:53;3.47;;;2.50;;
579;SDS011;276;48.392;9.950;2024-01-27T12:35:18;4.10;;;2.70;;
579;SDS011;276;48.392;9.950;2024-01-27T12:37:44;2.63;;;2.43;;
579;SDS011;276;48.392;9.950;2024-01-27T12:40:22;4.20;;;3.20;;
579;SDS011;276;48.392;9.950;2024-01-27T12:42:48;3.10;;;2.40;;
579;SDS011;276;48.392;9.950;2024-01-27T12:45:16;5.03;;;3.30;;
579;SDS011;276;48.392;9.950;2024-01-27T12:47:42;5.43;;;2.70;;
579;SDS011;276;48.392;9.950;2024-01-27T12:50:10;3.93;;;2.43;;
579;SDS011;276;48.392;9.950;2024-01-27T12:52:36;3.63;;;2.33;;
579;SDS011;276;48.392;9.950;2024-01-27T12:55:02;3.57;;;1.50;;
579;SDS011;276;48.392;9.950;2024-01-27T12:57:29;1.70;;;1.60;;
579;SDS011;276;48.392;9.950;2024-01-27T12:59:54;3.10;;;2.40;;
579;SDS011;276;48.392;9.950;2024-01-27T13:02:22;3.70;;;2.00;;
579;SDS011;276;48.392;9.950;2024-01-27T13:04:50;2.73;;;1.50;;
579;SDS011;276;48.392;9.950;2024-01-27T13:07:20;3.30;;;2.00;;
579;SDS011;276;48.392;9.950;2024-01-27T13:09:46;3.03;;;2.10;;
579;SDS011;276;48.392;9.950;2024-01-27T13:12:16;4.07;;;2.60;;
579;SDS011;276;48.392;9.950;2024-01-27T13:14:42;3.67;;;2.47;;
579;SDS011;276;48.392;9.950;2024-01-27T13:17:10;4.57;;;2.57;;
579;SDS011;276;48.392;9.950;2024-01-27T13:19:35;4.40;;;2.87;;
579;SDS011;276;48.392;9.950;2024-01-27T13:22:04;4.30;;;2.73;;
579;SDS011;276;48.392;9.950;2024-01-27T13:24:30;3.23;;;2.27;;
579;SDS011;276;48.392;9.950;2024-01-27T13:26:56;3.60;;;2.23;;
579;SDS011;276;48.392;9.950;2024-01-27T13:29:22;6.03;;;3.53;;
579;SDS011;276;48.392;9.950;2024-01-27T13:31:48;6.70;;;3.10;;
579;SDS011;276;48.392;9.950;2024-01-27T13:34:17;4.83;;;3.03;;
579;SDS011;276;48.392;9.950;2024-01-27T13:36:42;4.00;;;3.00;;
579;SDS011;276;48.392;9.950;2024-01-27T13:39:08;4.10;;;2.70;;
579;SDS011;276;48.392;9.950;2024-01-27T13:41:38;5.00;;;1.90;;
579;SDS011;276;48.392;9.950;2024-01-27T13:44:04;3.00;;;2.50;;
579;SDS011;276;48.392;9.950;2024-01-27T13:46:30;2.43;;;1.93;;
579;SDS011;276;48.392;9.950;2024-01-27T13:48:56;8.33;;;1.80;;
579;SDS011;276;48.392;9.950;2024-01-27T13:51:24;2.73;;;1.67;;
579;SDS011;276;48.392;9.950;2024-01-27T13:53:50;2.40;;;1.60;;
579;SDS011;276;48.392;9.950;2024-01-27T13:56:16;3.77;;;2.30;;
579;SDS011;276;48.392;9.950;2024-01-27T13:58:42;5.93;;;2.73;;
579;SDS011;276;48.392;9.950;2024-01-27T14:01:07;4.90;;;2.07;;
579;SDS011;276;48.392;9.950;2024-01-27T14:03:36;4.20;;;2.03;;
579;SDS011;276;48.392;9.950;2024-01-27T14:06:02;3.30;;;2.10;;
579;SDS011;276;48.392;9.950;2024-01-27T14:08:36;3.43;;;2.13;;
579;SDS011;276;48.392;9.950;2024-01-27T14:11:05;4.47;;;2.10;;
579;SDS011;276;48.392;9.950;2024-01-27T14:13:33;4.50;;;1.97;;
579;SDS011;276;48.392;9.950;2024-01-27T14:15:59;3.43;;;2.60;;
579;SDS011;276;48.392;9.950;2024-01-27T14:18:25;3.57;;;2.07;;
579;SDS011;276;48.392;9.950;2024-01-27T14:20:53;2.57;;;2.30;;
579;SDS011;276;48.392;9.950;2024-01-27T14:23:18;3.50;;;2.30;;
579;SDS011;276;48.392;9.950;2024-01-27T14:25:46;5.90;;;3.80;;
579;SDS011;276;48.392;9.950;2024-01-27T14:28:12;5.37;;;3.00;;
579;SDS011;276;48.392;9.950;2024-01-27T14:30:38;3.03;;;2.73;;
579;SDS011;276;48.392;9.950;2024-01-27T14:33:05;4.93;;;2.60;;
579;SDS011;276;48.392;9.950;2024-01-27T14:35:33;3.60;;;2.60;;
579;SDS011;276;48.392;9.950;2024-01-27T14:38:01;5.80;;;2.80;;
579;SDS011;276;48.392;9.950;2024-01-27T14:40:33;4.27;;;2.40;;
579;SDS011;276;48.392;9.950;2024-01-27T14:43:02;16.33;;;10.10;;
579;SDS011;276;48.392;9.950;2024-01-27T14:45:33;17.77;;;13.07;;
579;SDS011;276;48.392;9.950;2024-01-27T14:48:01;13.07;;;9.27;;
579;SDS011;276;48.392;9.950;2024-01-27T14:50:30;12.40;;;5.43;;
579;SDS011;276;48.392;9.950;2024-01-27T14:52:58;5.13;;;3.50;;
579;SDS011;276;48.392;9.950;2024-01-27T14:55:27;3.33;;;2.90;;
579;SDS011;276;48.392;9.950;2024-01-27T14:57:58;6.03;;;3.67;;
579;SDS011;276;48.392;9.950;2024-01-27T15:00:26;4.50;;;4.10;;
579;SDS011;276;48.392;9.950;2024-01-27T15:02:52;3.70;;;3.40;;
579;SDS011;276;48.392;9.950;2024-01-27T15:05:20;5.53;;;3.07;;
579;SDS011;276;48.392;9.950;2024-01-27T15:07:46;3.37;;;2.80;;
579;SDS011;276;48.392;9.950;2024-01-27T15:10:11;3.17;;;2.50;;
579;SDS011;276;48.392;9.950;2024-01-27T15:12:37;8.00;;;3.73;;
579;SDS011;276;48.392;9.950;2024-01-27T15:15:03;3.93;;;3.00;;
579;SDS011;276;48.392;9.950;2024-01-27T15:17:29;3.07;;;2.70;;
579;SDS011;276;48.392;9.950;2024-01-27T15:19:57;3.80;;;3.03;;
579;SDS011;276;48.392;9.950;2024-01-27T15:22:25;7.43;;;2.77;;
579;SDS011;276;48.392;9.950;2024-01-27T15:24:51;5.73;;;2.80;;
579;SDS011;276;48.392;9.950;2024-01-27T15:27:22;3.70;;;2.87;;
579;SDS011;276;48.392;9.950;2024-01-27T15:29:48;5.10;;;3.67;;
579;SDS011;276;48.392;9.950;2024-01-27T15:32:16;3.83;;;3.53;;
579;SDS011;276;48.392;9.950;2024-01-27T15:34:46;5.20;;;3.40;;
579;SDS011;276;48.392;9.950;2024-01-27T15:37:12;4.93;;;4.17;;
579;SDS011;276;48.392;9.950;2024-01-27T15:39:39;4.43;;;2.67;;
579;SDS011;276;48.392;9.950;2024-01-27T15:42:05;8.80;;;3.20;;
579;SDS011;276;48.392;9.950;2024-01-27T15:44:32;6.63;;;4.40;;